createdAt,value
2022-12-24T00:01:20.132Z,6.01
2022-12-24T00:03:21.919Z,5.93
2022-12-24T00:05:23.818Z,5.90
2022-12-24T00:07:25.703Z,5.77
2022-12-24T00:09:27.440Z,5.72
2022-12-24T00:11:29.375Z,5.75
2022-12-24T00:13:31.360Z,5.79
2022-12-24T00:15:33.085Z,5.71
2022-12-24T00:17:34.793Z,5.69
2022-12-24T00:19:36.548Z,5.70
2022-12-24T00:21:38.182Z,5.70
2022-12-24T00:23:40.432Z,5.71
2022-12-24T00:25:42.233Z,5.78
2022-12-24T00:27:43.934Z,5.78
2022-12-24T00:29:45.748Z,5.77
2022-12-24T00:31:47.469Z,5.73
2022-12-24T00:33:50.003Z,5.75
2022-12-24T00:35:52.830Z,5.75
2022-12-24T00:37:54.550Z,5.73
2022-12-24T00:39:56.290Z,5.82
2022-12-24T00:41:57.980Z,5.79
2022-12-24T00:44:02.054Z,5.73
2022-12-24T00:46:03.807Z,5.72
2022-12-24T00:48:05.810Z,5.73
2022-12-24T00:50:08.251Z,5.70
2022-12-24T00:52:09.973Z,5.73
2022-12-24T00:54:12.050Z,5.70
2022-12-24T00:56:13.876Z,5.69
2022-12-24T00:58:15.568Z,5.70
2022-12-24T01:00:18.118Z,5.82
2022-12-24T01:02:20.157Z,5.80
2022-12-24T01:04:40.735Z,5.75
2022-12-24T01:06:42.571Z,5.81
2022-12-24T01:08:44.262Z,5.82
2022-12-24T01:10:46.130Z,5.89
2022-12-24T01:12:48.072Z,5.94
2022-12-24T01:14:49.865Z,6.03
2022-12-24T01:16:51.492Z,6.04
2022-12-24T01:18:53.709Z,6.03
2022-12-24T01:21:01.534Z,6.06
2022-12-24T01:23:03.253Z,6.02
2022-12-24T01:25:05.381Z,6.02
2022-12-24T01:27:07.068Z,5.88
2022-12-24T01:29:08.786Z,5.73
2022-12-24T01:31:15.414Z,5.52
2022-12-24T01:33:17.250Z,5.38
2022-12-24T01:35:18.905Z,5.27
2022-12-24T01:37:20.712Z,5.27
2022-12-24T01:39:22.478Z,5.16
2022-12-24T01:41:43.764Z,5.13
2022-12-24T01:43:45.792Z,4.98
2022-12-24T01:45:49.198Z,4.74
2022-12-24T01:47:50.973Z,4.60
2022-12-24T01:49:57.423Z,4.45
2022-12-24T01:52:03.795Z,4.33
2022-12-24T01:54:08.539Z,4.49
2022-12-24T01:56:10.944Z,4.60
2022-12-24T01:58:14.500Z,4.68
2022-12-24T02:00:16.840Z,4.85
2022-12-24T02:02:19.517Z,5.01
2022-12-24T02:04:26.228Z,5.08
2022-12-24T02:06:28.080Z,5.04
2022-12-24T02:08:40.137Z,5.06
2022-12-24T02:10:42.301Z,5.08
2022-12-24T02:12:44.691Z,5.02
2022-12-24T02:14:46.389Z,5.11
2022-12-24T02:16:58.216Z,5.15
2022-12-24T02:19:11.519Z,5.15
2022-12-24T02:21:22.714Z,5.16
2022-12-24T02:23:58.066Z,5.24
2022-12-24T02:26:20.466Z,5.26
2022-12-24T02:28:40.608Z,5.26
2022-12-24T02:30:45.026Z,5.20
2022-12-24T02:32:58.639Z,5.17
2022-12-24T02:35:12.786Z,5.16
2022-12-24T02:37:35.122Z,5.22
2022-12-24T02:40:01.390Z,5.26
2022-12-24T02:42:06.004Z,5.29
2022-12-24T02:44:07.682Z,5.32
2022-12-24T02:46:13.196Z,5.24
2022-12-24T02:48:17.561Z,5.20
2022-12-24T02:50:20.484Z,5.16
2022-12-24T02:52:51.613Z,5.14
2022-12-24T02:54:53.283Z,5.11
2022-12-24T02:57:19.009Z,4.99
2022-12-24T02:59:33.088Z,4.87
2022-12-24T03:02:06.646Z,4.84
2022-12-24T03:04:12.065Z,4.77
2022-12-24T03:06:52.363Z,4.81
2022-12-24T03:09:06.447Z,4.82
2022-12-24T03:11:12.805Z,4.85
2022-12-24T03:13:17.079Z,4.88
2022-12-24T03:15:22.224Z,4.82
2022-12-24T03:17:23.972Z,4.78
2022-12-24T03:19:26.664Z,4.83
2022-12-24T03:21:31.985Z,4.89
2022-12-24T03:23:34.449Z,4.90
2022-12-24T03:25:40.216Z,4.86
2022-12-24T03:27:42.390Z,4.83
2022-12-24T03:29:45.303Z,4.75
2022-12-24T03:31:50.972Z,4.76
2022-12-24T03:33:52.659Z,4.72
2022-12-24T03:35:54.341Z,4.76
2022-12-24T03:37:56.888Z,4.80
2022-12-24T03:39:58.805Z,4.81
2022-12-24T03:42:00.466Z,4.80
2022-12-24T03:44:02.183Z,4.74
2022-12-24T03:46:06.756Z,4.47
2022-12-24T03:48:08.553Z,4.31
2022-12-24T03:50:10.438Z,4.29
2022-12-24T03:52:12.210Z,4.19
2022-12-24T03:54:13.877Z,4.25
2022-12-24T03:56:15.617Z,4.37
2022-12-24T03:58:17.437Z,4.45
2022-12-24T04:00:19.732Z,4.50
2022-12-24T04:02:21.603Z,4.44
2022-12-24T04:04:23.411Z,4.38
2022-12-24T04:06:25.075Z,4.41
2022-12-24T04:08:26.821Z,4.26
2022-12-24T04:10:28.481Z,4.29
2022-12-24T04:12:30.158Z,3.91
2022-12-24T04:14:32.034Z,3.90
2022-12-24T04:16:33.811Z,4.02
2022-12-24T04:18:36.150Z,4.05
2022-12-24T04:20:38.027Z,4.15
2022-12-24T04:22:39.685Z,4.26
2022-12-24T04:24:41.550Z,4.30
2022-12-24T04:26:43.346Z,4.34
2022-12-24T04:28:45.049Z,4.42
2022-12-24T04:30:46.707Z,4.40
2022-12-24T04:32:48.393Z,4.41
2022-12-24T04:34:50.188Z,4.39
2022-12-24T04:36:51.894Z,4.42
2022-12-24T04:38:53.740Z,4.11
2022-12-24T04:41:00.408Z,3.90
2022-12-24T04:43:02.264Z,3.81
2022-12-24T04:45:04.306Z,3.82
2022-12-24T04:47:05.998Z,3.96
2022-12-24T04:49:08.219Z,4.04
2022-12-24T04:51:10.133Z,4.17
2022-12-24T04:53:15.076Z,4.22
2022-12-24T04:55:16.765Z,4.23
2022-12-24T04:57:18.522Z,4.20
2022-12-24T04:59:20.224Z,4.20
2022-12-24T05:01:27.188Z,4.24
2022-12-24T05:03:29.095Z,4.23
2022-12-24T05:05:31.137Z,4.30
2022-12-24T05:07:34.349Z,4.28
2022-12-24T05:09:36.337Z,4.33
2022-12-24T05:11:38.105Z,4.34
2022-12-24T05:13:46.604Z,4.31
2022-12-24T05:15:49.270Z,4.25
2022-12-24T05:17:51.313Z,4.29
2022-12-24T05:19:52.980Z,4.35
2022-12-24T05:22:12.934Z,4.34
2022-12-24T05:24:33.472Z,4.26
2022-12-24T05:26:40.099Z,4.34
2022-12-24T05:28:41.809Z,4.39
2022-12-24T05:30:43.564Z,4.44
2022-12-24T05:32:45.205Z,4.47
2022-12-24T05:34:46.978Z,4.49
2022-12-24T05:36:48.638Z,4.51
2022-12-24T05:38:50.750Z,4.60
2022-12-24T05:40:52.494Z,4.68
2022-12-24T05:42:54.207Z,4.69
2022-12-24T05:44:56.199Z,4.75
2022-12-24T05:46:57.907Z,4.67
2022-12-24T05:48:59.636Z,4.60
2022-12-24T05:51:06.230Z,4.66
2022-12-24T05:53:08.339Z,4.66
2022-12-24T05:55:10.341Z,4.70
2022-12-24T05:57:12.156Z,4.75
2022-12-24T05:59:13.906Z,4.72
2022-12-24T06:01:16.223Z,4.69
2022-12-24T06:03:17.993Z,4.67
2022-12-24T06:05:19.592Z,4.64
2022-12-24T06:07:21.896Z,4.54
2022-12-24T06:09:23.597Z,4.53
2022-12-24T06:11:27.223Z,4.47
2022-12-24T06:13:29.253Z,4.45
2022-12-24T06:15:31.196Z,3.90
2022-12-24T06:17:33.639Z,3.57
2022-12-24T06:19:35.365Z,3.41
2022-12-24T06:21:37.111Z,3.37
2022-12-24T06:23:40.614Z,3.49
2022-12-24T06:25:42.310Z,3.65
2022-12-24T06:27:44.054Z,3.83
2022-12-24T06:29:45.733Z,4.08
2022-12-24T06:31:47.465Z,4.36
2022-12-24T06:33:49.714Z,4.91
2022-12-24T06:35:51.477Z,5.12
2022-12-24T06:37:53.164Z,5.21
2022-12-24T06:39:54.894Z,5.30
2022-12-24T06:41:56.581Z,5.37
2022-12-24T06:43:58.328Z,5.39
2022-12-24T06:46:00.587Z,5.42
2022-12-24T06:48:02.492Z,5.48
2022-12-24T06:50:04.897Z,5.47
2022-12-24T06:52:06.980Z,5.50
2022-12-24T06:54:08.968Z,5.47
2022-12-24T06:56:13.552Z,5.56
2022-12-24T06:58:15.272Z,5.59
2022-12-24T07:00:17.507Z,5.56
2022-12-24T07:02:19.373Z,5.63
2022-12-24T07:04:21.229Z,5.68
2022-12-24T07:06:28.636Z,5.77
2022-12-24T07:08:33.682Z,5.82
2022-12-24T07:10:36.666Z,5.84
2022-12-24T07:12:38.483Z,5.87
2022-12-24T07:14:40.315Z,5.85
2022-12-24T07:16:42.037Z,5.90
2022-12-24T07:18:44.441Z,5.90
2022-12-24T07:20:46.250Z,5.88
2022-12-24T07:22:47.952Z,5.82
2022-12-24T07:24:49.616Z,5.81
2022-12-24T07:26:51.558Z,5.79
2022-12-24T07:28:53.512Z,5.80
2022-12-24T07:30:56.779Z,5.79
2022-12-24T07:32:58.556Z,5.77
2022-12-24T07:35:00.370Z,5.88
2022-12-24T07:37:02.180Z,5.92
2022-12-24T07:39:03.969Z,5.98
2022-12-24T07:41:05.874Z,5.98
2022-12-24T07:43:07.878Z,5.83
2022-12-24T07:45:10.527Z,5.84
2022-12-24T07:47:12.340Z,5.91
2022-12-24T07:49:14.201Z,6.04
2022-12-24T07:51:15.880Z,6.12
2022-12-24T07:53:17.641Z,6.19
2022-12-24T07:55:19.638Z,6.19
2022-12-24T07:57:21.441Z,6.21
2022-12-24T07:59:23.330Z,6.32
2022-12-24T08:01:25.197Z,6.46
2022-12-24T08:03:27.916Z,6.54
2022-12-24T08:05:35.069Z,6.57
2022-12-24T08:07:36.844Z,6.57
2022-12-24T08:09:38.661Z,6.61
2022-12-24T08:11:42.442Z,6.59
2022-12-24T08:13:48.222Z,6.56
2022-12-24T08:15:50.011Z,6.61
2022-12-24T08:17:51.845Z,6.68
2022-12-24T08:19:53.583Z,6.67
2022-12-24T08:21:55.449Z,6.63
2022-12-24T08:23:57.640Z,6.68
2022-12-24T08:25:59.380Z,6.72
2022-12-24T08:28:01.201Z,6.78
2022-12-24T08:30:04.280Z,6.80
2022-12-24T08:32:06.148Z,6.88
2022-12-24T08:34:09.212Z,6.90
2022-12-24T08:36:10.952Z,6.96
2022-12-24T08:38:12.758Z,7.05
2022-12-24T08:40:14.492Z,7.00
2022-12-24T08:43:03.978Z,6.98
2022-12-24T08:45:49.123Z,7.01
2022-12-24T08:47:50.845Z,6.76
2022-12-24T08:49:52.863Z,6.78
2022-12-24T08:51:54.597Z,6.76
2022-12-24T08:53:56.318Z,6.61
2022-12-24T08:56:06.006Z,6.60
2022-12-24T08:58:07.829Z,6.52
2022-12-24T09:00:12.211Z,6.72
2022-12-24T09:02:14.215Z,6.82
2022-12-24T09:04:16.162Z,6.93
2022-12-24T09:06:18.107Z,7.00
2022-12-24T09:08:20.715Z,7.13
2022-12-24T09:10:22.660Z,7.20
2022-12-24T09:12:24.417Z,7.31
2022-12-24T09:14:26.707Z,7.39
2022-12-24T09:16:28.904Z,7.51
2022-12-24T09:18:31.062Z,7.56
2022-12-24T09:20:32.913Z,7.53
2022-12-24T09:22:37.149Z,7.55
2022-12-24T09:24:38.910Z,7.55
2022-12-24T09:26:42.584Z,7.65
2022-12-24T09:28:44.836Z,7.49
2022-12-24T09:30:55.801Z,7.32
2022-12-24T09:32:57.566Z,7.16
2022-12-24T09:34:59.537Z,7.10
2022-12-24T09:37:04.233Z,7.06
2022-12-24T09:39:05.927Z,6.75
2022-12-24T09:41:15.100Z,6.83
2022-12-24T09:43:20.690Z,6.86
2022-12-24T09:45:27.072Z,6.91
2022-12-24T09:47:44.141Z,6.76
2022-12-24T09:49:48.832Z,6.79
2022-12-24T09:51:55.810Z,6.97
2022-12-24T09:54:01.188Z,7.16
2022-12-24T09:56:07.329Z,6.81
2022-12-24T09:58:18.925Z,6.65
2022-12-24T10:00:32.629Z,6.56
2022-12-24T10:02:34.509Z,6.72
2022-12-24T10:04:36.162Z,7.00
2022-12-24T10:06:46.275Z,7.23
2022-12-24T10:09:03.722Z,7.14
2022-12-24T10:11:30.271Z,6.98
2022-12-24T10:13:49.916Z,7.04
2022-12-24T10:16:15.107Z,7.16
2022-12-24T10:18:38.540Z,7.29
2022-12-24T10:20:53.266Z,7.39
2022-12-24T10:23:08.986Z,7.51
2022-12-24T10:25:22.253Z,7.43
2022-12-24T10:27:28.658Z,7.41
2022-12-24T10:29:37.502Z,7.60
2022-12-24T10:31:58.109Z,7.31
2022-12-24T10:34:06.712Z,6.85
2022-12-24T10:36:13.378Z,6.76
2022-12-24T10:38:15.121Z,6.52
2022-12-24T10:40:31.609Z,6.70
2022-12-24T10:42:51.124Z,6.98
2022-12-24T10:44:58.119Z,7.22
2022-12-24T10:46:59.961Z,7.35
2022-12-24T10:49:04.433Z,7.24
2022-12-24T10:51:13.495Z,7.30
2022-12-24T10:53:20.459Z,7.43
2022-12-24T10:55:29.087Z,7.64
2022-12-24T10:57:30.784Z,7.71
2022-12-24T10:59:59.702Z,7.80
2022-12-24T11:02:02.191Z,7.96
2022-12-24T11:04:04.696Z,7.99
2022-12-24T11:06:10.957Z,7.98
2022-12-24T11:08:17.445Z,7.92
2022-12-24T11:10:23.970Z,8.07
2022-12-24T11:12:32.610Z,8.12
2022-12-24T11:14:38.885Z,8.12
2022-12-24T11:16:40.570Z,8.21
2022-12-24T11:18:51.962Z,8.32
2022-12-24T11:20:54.240Z,8.40
2022-12-24T11:22:56.887Z,8.53
2022-12-24T11:25:20.391Z,8.68
2022-12-24T11:27:24.571Z,8.77
2022-12-24T11:29:28.259Z,8.62
2022-12-24T11:31:33.064Z,8.48
2022-12-24T11:33:47.450Z,8.53
2022-12-24T11:35:56.838Z,8.29
2022-12-24T11:38:01.517Z,8.33
2022-12-24T11:40:03.562Z,8.52
2022-12-24T11:42:05.521Z,8.84
2022-12-24T11:44:09.244Z,9.18
2022-12-24T11:46:21.208Z,9.43
2022-12-24T11:48:34.059Z,9.28
2022-12-24T11:50:40.112Z,9.13
2022-12-24T11:52:42.889Z,9.05
2022-12-24T11:55:13.764Z,9.06
2022-12-24T11:57:20.654Z,9.23
2022-12-24T11:59:44.239Z,9.26
2022-12-24T12:02:29.265Z,9.39
2022-12-24T12:04:33.732Z,9.53
2022-12-24T12:06:42.586Z,9.60
2022-12-24T12:08:46.488Z,9.70
2022-12-24T12:10:48.444Z,9.94
2022-12-24T12:13:15.938Z,10.01
2022-12-24T12:15:22.190Z,10.13
2022-12-24T12:17:35.567Z,10.12
2022-12-24T12:19:39.210Z,9.92
2022-12-24T12:21:45.179Z,9.69
2022-12-24T12:24:04.748Z,9.70
2022-12-24T12:26:23.728Z,9.71
2022-12-24T12:28:41.821Z,9.67
2022-12-24T12:30:45.244Z,9.58
2022-12-24T12:33:06.227Z,9.45
2022-12-24T12:35:27.744Z,9.22
2022-12-24T12:37:35.874Z,9.23
2022-12-24T12:39:37.684Z,9.23
2022-12-24T12:41:45.139Z,9.16
2022-12-24T12:44:29.882Z,9.27
2022-12-24T12:46:44.156Z,9.37
2022-12-24T12:49:02.946Z,9.42
2022-12-24T12:51:27.116Z,9.38
2022-12-24T12:53:50.536Z,9.41
2022-12-24T12:56:17.460Z,9.28
2022-12-24T12:59:00.630Z,9.33
2022-12-24T13:01:36.310Z,9.34
2022-12-24T13:04:08.242Z,9.31
2022-12-24T13:06:18.782Z,9.27
2022-12-24T13:08:46.111Z,9.27
2022-12-24T13:11:02.495Z,9.11
2022-12-24T13:13:30.228Z,9.02
2022-12-24T13:15:41.952Z,9.02
2022-12-24T13:18:01.473Z,9.01
2022-12-24T13:20:32.580Z,8.89
2022-12-24T13:22:34.436Z,8.95
2022-12-24T13:24:36.770Z,8.92
2022-12-24T13:26:38.685Z,8.89
2022-12-24T13:28:40.432Z,9.01
2022-12-24T13:30:42.537Z,9.10
2022-12-24T13:32:50.404Z,9.14
2022-12-24T13:35:03.146Z,9.17
2022-12-24T13:37:20.136Z,9.16
2022-12-24T13:39:22.085Z,9.14
2022-12-24T13:41:40.638Z,9.23
2022-12-24T13:44:16.116Z,9.27
2022-12-24T13:46:58.312Z,9.27
2022-12-24T13:49:11.778Z,9.00
2022-12-24T13:51:25.243Z,8.83
2022-12-24T13:53:48.177Z,8.85
2022-12-24T13:55:53.086Z,8.64
2022-12-24T13:57:57.492Z,8.71
2022-12-24T14:00:21.447Z,8.82
2022-12-24T14:02:23.595Z,8.92
2022-12-24T14:04:29.404Z,8.87
2022-12-24T14:06:34.119Z,8.96
2022-12-24T14:08:44.649Z,9.11
2022-12-24T14:10:57.692Z,9.10
2022-12-24T14:12:59.547Z,9.18
2022-12-24T14:15:39.657Z,9.30
2022-12-24T14:17:41.483Z,9.31
2022-12-24T14:19:46.613Z,9.27
2022-12-24T14:22:16.398Z,9.25
2022-12-24T14:24:20.997Z,9.11
2022-12-24T14:26:28.646Z,9.02
2022-12-24T14:28:35.939Z,8.91
2022-12-24T14:30:37.633Z,8.87
2022-12-24T14:32:41.501Z,8.80
2022-12-24T14:34:43.165Z,8.77
2022-12-24T14:36:46.640Z,8.82
2022-12-24T14:38:49.941Z,8.92
2022-12-24T14:41:13.394Z,8.97
2022-12-24T14:43:52.866Z,9.04
2022-12-24T14:46:22.045Z,9.12
2022-12-24T14:49:14.681Z,9.17
2022-12-24T14:51:50.557Z,9.19
2022-12-24T14:54:13.835Z,9.21
2022-12-24T14:56:20.773Z,9.29
2022-12-24T14:58:26.871Z,9.28
2022-12-24T15:00:28.739Z,9.26
2022-12-24T15:02:50.604Z,9.26
2022-12-24T15:05:19.789Z,9.26
2022-12-24T15:07:21.760Z,9.20
2022-12-24T15:09:29.596Z,9.22
2022-12-24T15:11:31.354Z,9.25
2022-12-24T15:13:38.471Z,9.29
2022-12-24T15:15:46.940Z,9.28
2022-12-24T15:17:54.494Z,9.23
2022-12-24T15:19:59.285Z,9.26
2022-12-24T15:22:02.464Z,9.11
2022-12-24T15:24:04.711Z,9.11
2022-12-24T15:26:29.696Z,9.07
2022-12-24T15:28:37.273Z,8.94
2022-12-24T15:30:39.070Z,8.95
2022-12-24T15:32:41.184Z,8.93
2022-12-24T15:34:46.423Z,8.90
2022-12-24T15:36:48.202Z,8.92
2022-12-24T15:38:52.676Z,8.85
2022-12-24T15:40:55.092Z,8.79
2022-12-24T15:42:56.849Z,8.82
2022-12-24T15:45:12.069Z,8.87
2022-12-24T15:47:19.779Z,8.88
2022-12-24T15:49:21.648Z,8.91
2022-12-24T15:51:26.299Z,8.93
2022-12-24T15:53:27.917Z,8.91
2022-12-24T15:55:34.132Z,8.94
2022-12-24T15:57:35.886Z,8.84
2022-12-24T15:59:37.746Z,8.73
2022-12-24T16:01:39.789Z,8.70
2022-12-24T16:03:55.252Z,8.58
2022-12-24T16:06:04.748Z,8.54
2022-12-24T16:08:16.770Z,8.61
2022-12-24T16:10:25.889Z,8.55
2022-12-24T16:12:27.621Z,8.44
2022-12-24T16:14:30.128Z,8.39
2022-12-24T16:16:41.974Z,8.42
2022-12-24T16:18:51.484Z,8.43
2022-12-24T16:20:54.938Z,8.47
2022-12-24T16:22:56.662Z,8.63
2022-12-24T16:25:08.934Z,8.73
2022-12-24T16:27:13.788Z,8.84
2022-12-24T16:29:16.519Z,8.87
2022-12-24T16:31:19.787Z,8.83
2022-12-24T16:33:23.604Z,8.84
2022-12-24T16:35:27.811Z,8.57
2022-12-24T16:37:29.653Z,8.43
2022-12-24T16:39:33.568Z,8.28
2022-12-24T16:41:55.069Z,8.19
2022-12-24T16:43:56.820Z,8.15
2022-12-24T16:46:04.463Z,8.10
2022-12-24T16:48:07.376Z,8.03
2022-12-24T16:50:15.551Z,8.00
2022-12-24T16:52:26.352Z,7.92
2022-12-24T16:54:30.254Z,8.07
2022-12-24T16:56:31.801Z,7.98
2022-12-24T16:58:33.610Z,8.02
2022-12-24T17:00:36.363Z,7.94
2022-12-24T17:02:39.879Z,7.97
2022-12-24T17:04:42.184Z,7.87
2022-12-24T17:06:44.316Z,7.88
2022-12-24T17:08:45.952Z,8.00
2022-12-24T17:10:51.832Z,8.17
2022-12-24T17:12:53.817Z,8.23
2022-12-24T17:14:55.522Z,8.14
2022-12-24T17:16:57.241Z,8.15
2022-12-24T17:18:58.872Z,8.00
2022-12-24T17:21:01.905Z,8.02
2022-12-24T17:23:03.915Z,8.01
2022-12-24T17:25:06.743Z,8.06
2022-12-24T17:27:08.565Z,8.16
2022-12-24T17:29:10.927Z,8.31
2022-12-24T17:31:15.263Z,8.42
2022-12-24T17:33:17.089Z,8.50
2022-12-24T17:35:18.927Z,8.60
2022-12-24T17:37:20.639Z,8.69
2022-12-24T17:39:27.535Z,8.73
2022-12-24T17:41:29.714Z,8.76
2022-12-24T17:43:31.588Z,8.87
2022-12-24T17:45:33.435Z,8.93
2022-12-24T17:47:35.107Z,8.91
2022-12-24T17:49:37.408Z,8.98
2022-12-24T17:51:45.062Z,9.06
2022-12-24T17:53:48.293Z,9.02
2022-12-24T17:55:50.001Z,9.12
2022-12-24T17:57:51.966Z,9.09
2022-12-24T17:59:53.679Z,9.10
2022-12-24T18:01:55.546Z,9.09
2022-12-24T18:04:02.122Z,9.06
2022-12-24T18:06:06.058Z,8.93
2022-12-24T18:08:07.692Z,8.62
2022-12-24T18:10:09.925Z,8.48
2022-12-24T18:12:13.072Z,8.58
2022-12-24T18:14:15.495Z,8.68
2022-12-24T18:16:22.779Z,8.66
2022-12-24T18:18:25.014Z,8.81
2022-12-24T18:20:27.021Z,8.85
2022-12-24T18:22:28.748Z,8.88
2022-12-24T18:24:30.428Z,8.91
2022-12-24T18:26:33.443Z,8.97
2022-12-24T18:28:35.178Z,8.99
2022-12-24T18:30:39.091Z,9.02
2022-12-24T18:32:40.853Z,9.05
2022-12-24T18:34:43.167Z,9.02
2022-12-24T18:36:48.283Z,9.04
2022-12-24T18:38:53.050Z,9.04
2022-12-24T18:40:54.822Z,9.09
2022-12-24T18:42:56.649Z,9.06
2022-12-24T18:44:58.405Z,9.00
2022-12-24T18:47:00.233Z,9.00
2022-12-24T18:49:02.415Z,8.98
2022-12-24T18:51:05.115Z,9.02
2022-12-24T18:53:07.839Z,9.12
2022-12-24T18:55:09.920Z,9.15
2022-12-24T18:57:12.223Z,9.17
2022-12-24T18:59:13.872Z,9.16
2022-12-24T19:01:18.776Z,9.13
2022-12-24T19:03:20.620Z,9.16
2022-12-24T19:05:22.450Z,9.18
2022-12-24T19:07:24.269Z,9.15
2022-12-24T19:09:26.180Z,9.12
2022-12-24T19:11:30.032Z,9.06
2022-12-24T19:13:32.108Z,9.06
2022-12-24T19:15:35.977Z,9.04
2022-12-24T19:17:37.856Z,9.00
2022-12-24T19:19:40.247Z,9.01
2022-12-24T19:21:41.994Z,9.07
2022-12-24T19:23:44.569Z,9.09
2022-12-24T19:25:46.327Z,9.07
2022-12-24T19:27:48.157Z,9.01
2022-12-24T19:29:49.918Z,9.08
2022-12-24T19:31:51.761Z,9.11
2022-12-24T19:33:56.102Z,9.09
2022-12-24T19:35:57.793Z,9.16
2022-12-24T19:37:59.747Z,9.18
2022-12-24T19:40:01.455Z,9.21
2022-12-24T19:42:03.577Z,9.27
2022-12-24T19:44:05.492Z,9.28
2022-12-24T19:46:12.538Z,9.30
2022-12-24T19:48:14.412Z,9.29
2022-12-24T19:50:17.290Z,9.26
2022-12-24T19:52:19.035Z,9.31
2022-12-24T19:54:20.982Z,9.32
2022-12-24T19:56:23.859Z,9.36
2022-12-24T19:58:26.656Z,9.31
2022-12-24T20:00:28.451Z,9.36
2022-12-24T20:02:30.333Z,9.42
2022-12-24T20:04:32.399Z,9.45
2022-12-24T20:06:35.462Z,9.52
2022-12-24T20:08:38.110Z,9.49
2022-12-24T20:10:41.623Z,9.48
2022-12-24T20:12:43.312Z,9.40
2022-12-24T20:14:45.459Z,9.43
2022-12-24T20:16:47.137Z,9.35
2022-12-24T20:18:53.328Z,9.36
2022-12-24T20:20:59.235Z,9.30
2022-12-24T20:23:01.504Z,9.35
2022-12-24T20:25:03.359Z,9.41
2022-12-24T20:27:05.199Z,9.42
2022-12-24T20:29:08.942Z,9.46
2022-12-24T20:31:12.754Z,9.50
2022-12-24T20:33:14.356Z,9.54
2022-12-24T20:35:16.170Z,9.57
2022-12-24T20:37:17.965Z,9.54
2022-12-24T20:39:19.696Z,9.54
2022-12-24T20:41:22.720Z,9.22
2022-12-24T20:43:26.490Z,8.96
2022-12-24T20:45:30.025Z,8.80
2022-12-24T20:47:32.349Z,8.82
2022-12-24T20:49:34.082Z,8.93
2022-12-24T20:51:35.773Z,8.92
2022-12-24T20:53:39.271Z,8.65
2022-12-24T20:55:41.295Z,8.56
2022-12-24T20:57:43.681Z,8.45
2022-12-24T20:59:45.371Z,8.39
2022-12-24T21:01:47.192Z,8.37
2022-12-24T21:03:49.042Z,8.43
2022-12-24T21:05:50.756Z,8.35
2022-12-24T21:07:52.465Z,8.23
2022-12-24T21:09:54.200Z,8.24
2022-12-24T21:11:56.009Z,8.27
2022-12-24T21:13:57.797Z,8.33
2022-12-24T21:15:59.540Z,8.40
2022-12-24T21:18:01.951Z,8.41
2022-12-24T21:20:04.874Z,8.44
2022-12-24T21:22:06.536Z,8.54
2022-12-24T21:24:09.397Z,8.96
2022-12-24T21:26:11.340Z,9.40
2022-12-24T21:28:13.103Z,9.70
2022-12-24T21:30:14.876Z,9.90
2022-12-24T21:32:16.621Z,10.05
2022-12-24T21:34:18.300Z,10.01
2022-12-24T21:36:20.881Z,9.91
2022-12-24T21:38:22.601Z,9.78
2022-12-24T21:40:24.298Z,9.75
2022-12-24T21:42:26.730Z,9.87
2022-12-24T21:44:28.567Z,9.93
2022-12-24T21:46:30.460Z,9.87
2022-12-24T21:48:50.847Z,10.01
2022-12-24T21:50:55.578Z,9.98
2022-12-24T21:53:18.484Z,10.11
2022-12-24T21:55:20.151Z,10.17
2022-12-24T21:57:40.799Z,9.99
2022-12-24T21:59:42.582Z,9.96
2022-12-24T22:01:44.444Z,10.00
2022-12-24T22:03:50.166Z,10.02
2022-12-24T22:05:52.217Z,10.14
2022-12-24T22:08:13.349Z,10.04
2022-12-24T22:10:33.778Z,9.93
2022-12-24T22:12:36.212Z,9.91
2022-12-24T22:14:38.108Z,9.79
2022-12-24T22:16:39.747Z,9.61
2022-12-24T22:18:41.445Z,9.53
2022-12-24T22:20:44.961Z,9.45
2022-12-24T22:22:48.603Z,9.40
2022-12-24T22:24:50.301Z,9.36
2022-12-24T22:26:52.584Z,9.33
2022-12-24T22:28:54.365Z,9.27
2022-12-24T22:30:57.213Z,9.25
2022-12-24T22:32:59.208Z,9.26
2022-12-24T22:35:00.921Z,9.29
2022-12-24T22:37:02.659Z,9.23
2022-12-24T22:39:04.841Z,9.18
2022-12-24T22:41:10.702Z,9.11
2022-12-24T22:43:12.321Z,9.06
2022-12-24T22:45:18.537Z,9.01
2022-12-24T22:47:23.734Z,9.04
2022-12-24T22:49:25.319Z,9.04
2022-12-24T22:51:28.161Z,9.05
2022-12-24T22:53:29.890Z,9.04
2022-12-24T22:55:31.536Z,9.01
2022-12-24T22:57:33.279Z,8.99
2022-12-24T22:59:36.471Z,8.95
2022-12-24T23:01:39.855Z,8.90
2022-12-24T23:03:41.944Z,8.88
2022-12-24T23:05:44.185Z,8.85
2022-12-24T23:07:45.985Z,8.92
2022-12-24T23:09:47.592Z,8.96
2022-12-24T23:11:49.291Z,8.94
2022-12-24T23:14:09.960Z,9.00
2022-12-24T23:16:11.755Z,8.97
2022-12-24T23:18:13.743Z,9.20
2022-12-24T23:20:15.823Z,9.24
2022-12-24T23:22:17.486Z,9.05
2022-12-24T23:24:19.152Z,8.82
2022-12-24T23:26:22.251Z,8.92
2022-12-24T23:28:24.079Z,8.91
2022-12-24T23:30:25.809Z,9.11
2022-12-24T23:32:27.644Z,9.13
2022-12-24T23:34:29.354Z,9.18
2022-12-24T23:36:31.041Z,9.19
2022-12-24T23:38:33.345Z,9.21
2022-12-24T23:40:35.083Z,9.18
2022-12-24T23:42:36.703Z,9.27
2022-12-24T23:44:38.466Z,9.20
2022-12-24T23:46:40.726Z,9.26
2022-12-24T23:48:42.744Z,9.23
2022-12-24T23:50:45.328Z,9.17
2022-12-24T23:52:47.046Z,9.26
2022-12-24T23:54:48.783Z,9.24
2022-12-24T23:56:50.498Z,9.21
2022-12-24T23:58:52.283Z,9.31
